createdAt,value
2022-11-13T00:01:11.540Z,102926.53
2022-11-13T00:03:37.849Z,102917.91
2022-11-13T00:06:04.475Z,102926.34
2022-11-13T00:08:31.335Z,102922.81
2022-11-13T00:11:04.603Z,102920.22
2022-11-13T00:13:31.281Z,102919.28
2022-11-13T00:16:01.344Z,102918.22
2022-11-13T00:18:28.473Z,102914.88
2022-11-13T00:20:55.027Z,102915.69
2022-11-13T00:23:21.412Z,102912.19
2022-11-13T00:25:47.684Z,102918.22
2022-11-13T00:28:13.968Z,102920.22
2022-11-13T00:30:40.255Z,102922.94
2022-11-13T00:33:06.560Z,102926.25
2022-11-13T00:35:33.358Z,102926.25
2022-11-13T00:37:59.660Z,102932.78
2022-11-13T00:40:26.009Z,102928.25
2022-11-13T00:42:52.287Z,102924.94
2022-11-13T00:45:18.579Z,102916.19
2022-11-13T00:47:44.861Z,102926.72
2022-11-13T00:50:11.151Z,102915.19
2022-11-13T00:52:37.466Z,102910.75
2022-11-13T00:55:03.964Z,102905.63
2022-11-13T00:57:30.222Z,102916.28
2022-11-13T00:59:56.518Z,102910.97
2022-11-13T01:02:22.809Z,102913.78
2022-11-13T01:04:49.104Z,102908.44
2022-11-13T01:07:15.742Z,102900.50
2022-11-13T01:09:42.049Z,102911.78
2022-11-13T01:12:08.325Z,102903.31
2022-11-13T01:14:34.606Z,102903.94
2022-11-13T01:17:00.889Z,102915.19
2022-11-13T01:19:27.163Z,102903.84
2022-11-13T01:21:53.449Z,102902.25
2022-11-13T01:24:19.728Z,102897.91
2022-11-13T01:26:46.007Z,102904.03
2022-11-13T01:29:12.548Z,102895.47
2022-11-13T01:31:38.951Z,102893.97
2022-11-13T01:34:05.255Z,102884.53
2022-11-13T01:36:31.553Z,102885.72
2022-11-13T01:38:57.918Z,102879.06
2022-11-13T01:41:26.647Z,102869.50
2022-11-13T01:43:54.034Z,102869.50
2022-11-13T01:46:22.328Z,102868.69
2022-11-13T01:48:51.489Z,102876.84
2022-11-13T01:51:40.965Z,102871.00
2022-11-13T01:54:09.764Z,102872.78
2022-11-13T01:56:36.312Z,102878.22
2022-11-13T01:59:14.638Z,102878.38
2022-11-13T02:01:41.309Z,102880.00
2022-11-13T02:04:07.819Z,102879.19
2022-11-13T02:06:55.842Z,102885.25
2022-11-13T02:09:24.880Z,102869.66
2022-11-13T02:11:52.194Z,102869.03
2022-11-13T02:14:19.781Z,102873.53
2022-11-13T02:16:47.970Z,102868.31
2022-11-13T02:19:19.608Z,102862.88
2022-11-13T02:22:24.377Z,102853.88
2022-11-13T02:24:54.670Z,102859.09
2022-11-13T02:27:26.262Z,102859.81
2022-11-13T02:29:53.035Z,102857.22
2022-11-13T02:32:19.323Z,102859.53
2022-11-13T02:34:45.658Z,102854.28
2022-11-13T02:37:12.073Z,102848.25
2022-11-13T02:39:38.538Z,102843.13
2022-11-13T02:42:04.885Z,102847.38
2022-11-13T02:44:31.390Z,102845.72
2022-11-13T02:46:57.692Z,102848.44
2022-11-13T02:49:24.038Z,102845.63
2022-11-13T02:51:50.338Z,102853.47
2022-11-13T02:54:17.260Z,102843.13
2022-11-13T02:56:43.728Z,102848.25
2022-11-13T02:59:10.025Z,102846.34
2022-11-13T03:01:36.362Z,102837.34
2022-11-13T03:04:03.348Z,102832.94
2022-11-13T03:06:29.677Z,102839.66
2022-11-13T03:08:56.017Z,102834.38
2022-11-13T03:11:22.316Z,102831.81
2022-11-13T03:13:48.611Z,102828.22
2022-11-13T03:16:15.689Z,102821.19
2022-11-13T03:18:42.231Z,102823.63
2022-11-13T03:21:09.508Z,102820.69
2022-11-13T03:23:35.813Z,102818.00
2022-11-13T03:26:02.901Z,102819.81
2022-11-13T03:28:29.938Z,102821.63
2022-11-13T03:30:56.700Z,102815.47
2022-11-13T03:33:23.091Z,102823.31
2022-11-13T03:35:49.657Z,102818.81
2022-11-13T03:38:15.970Z,102809.06
2022-11-13T03:40:42.911Z,102813.31
2022-11-13T03:43:09.225Z,102814.09
2022-11-13T03:45:35.663Z,102806.25
2022-11-13T03:48:02.000Z,102804.19
2022-11-13T03:50:28.292Z,102810.31
2022-11-13T03:52:54.592Z,102802.22
2022-11-13T03:55:20.879Z,102809.03
2022-11-13T03:57:47.636Z,102808.13
2022-11-13T04:00:14.637Z,102804.63
2022-11-13T04:02:41.185Z,102804.53
2022-11-13T04:05:07.949Z,102803.81
2022-11-13T04:07:34.245Z,102800.22
2022-11-13T04:10:00.597Z,102794.06
2022-11-13T04:12:26.980Z,102788.03
2022-11-13T04:14:53.278Z,102789.06
2022-11-13T04:17:19.587Z,102791.75
2022-11-13T04:19:45.926Z,102790.84
2022-11-13T04:22:12.569Z,102777.16
2022-11-13T04:24:38.854Z,102777.16
2022-11-13T04:27:05.141Z,102774.75
2022-11-13T04:29:31.431Z,102776.56
2022-11-13T04:31:57.714Z,102778.16
2022-11-13T04:34:23.999Z,102775.53
2022-11-13T04:36:50.358Z,102774.75
2022-11-13T04:39:16.870Z,102778.78
2022-11-13T04:42:01.835Z,102783.22
2022-11-13T04:44:28.122Z,102775.38
2022-11-13T04:46:54.614Z,102768.25
2022-11-13T04:49:20.902Z,102772.75
2022-11-13T04:51:47.189Z,102778.50
2022-11-13T04:54:13.675Z,102777.31
2022-11-13T04:56:40.287Z,102772.00
2022-11-13T04:59:06.635Z,102767.59
2022-11-13T05:01:34.619Z,102766.56
2022-11-13T05:04:00.929Z,102770.09
2022-11-13T05:06:27.199Z,102763.16
2022-11-13T05:08:53.522Z,102758.75
2022-11-13T05:11:19.825Z,102757.56
2022-11-13T05:13:46.407Z,102767.09
2022-11-13T05:16:14.093Z,102763.66
2022-11-13T05:18:40.781Z,102756.75
2022-11-13T05:21:08.220Z,102757.56
2022-11-13T05:23:35.045Z,102755.78
2022-11-13T05:26:05.294Z,102753.84
2022-11-13T05:28:32.139Z,102748.63
2022-11-13T05:31:12.128Z,102753.22
2022-11-13T05:33:39.294Z,102752.34
2022-11-13T05:36:06.918Z,102740.78
2022-11-13T05:38:33.269Z,102739.09
2022-11-13T05:41:06.424Z,102739.09
2022-11-13T05:43:33.241Z,102748.00
2022-11-13T05:46:00.700Z,102748.31
2022-11-13T05:48:27.414Z,102747.06
2022-11-13T05:50:54.140Z,102747.38
2022-11-13T05:53:20.499Z,102741.31
2022-11-13T05:55:47.683Z,102744.91
2022-11-13T05:58:14.064Z,102731.06
2022-11-13T06:00:40.423Z,102732.97
2022-11-13T06:03:06.773Z,102731.22
2022-11-13T06:05:34.922Z,102721.59
2022-11-13T06:08:01.279Z,102723.50
2022-11-13T06:10:27.667Z,102724.50
2022-11-13T06:12:54.494Z,102727.28
2022-11-13T06:15:20.782Z,102722.34
2022-11-13T06:17:47.175Z,102717.13
2022-11-13T06:20:13.828Z,102713.88
2022-11-13T06:22:40.144Z,102714.19
2022-11-13T06:25:06.623Z,102715.16
2022-11-13T06:27:32.912Z,102716.22
2022-11-13T06:29:59.316Z,102714.97
2022-11-13T06:32:25.674Z,102709.94
2022-11-13T06:34:51.960Z,102707.31
2022-11-13T06:37:18.259Z,102711.00
2022-11-13T06:39:44.542Z,102719.03
2022-11-13T06:42:10.882Z,102702.09
2022-11-13T06:44:37.167Z,102710.94
2022-11-13T06:47:03.535Z,102713.25
2022-11-13T06:49:29.822Z,102715.88
2022-11-13T06:51:56.124Z,102722.44
2022-11-13T06:54:22.462Z,102720.13
2022-11-13T06:56:48.869Z,102717.66
2022-11-13T06:59:15.158Z,102724.63
2022-11-13T07:01:41.493Z,102718.75
2022-11-13T07:04:11.764Z,102709.88
2022-11-13T07:06:40.464Z,102720.81
2022-11-13T07:09:07.346Z,102720.41
2022-11-13T07:11:33.671Z,102721.66
2022-11-13T07:14:00.254Z,102715.78
2022-11-13T07:16:34.911Z,102713.75
2022-11-13T07:19:10.679Z,102712.25
2022-11-13T07:21:37.395Z,102721.72
2022-11-13T07:24:03.918Z,102714.84
2022-11-13T07:26:30.486Z,102714.53
2022-11-13T07:28:56.816Z,102728.94
2022-11-13T07:31:23.286Z,102724.69
2022-11-13T07:33:50.090Z,102729.81
2022-11-13T07:36:16.410Z,102731.91
2022-11-13T07:38:42.847Z,102737.50
2022-11-13T07:41:09.204Z,102734.44
2022-11-13T07:43:35.588Z,102725.84
2022-11-13T07:46:02.222Z,102734.13
2022-11-13T07:48:28.845Z,102736.56
2022-11-13T07:50:55.725Z,102730.59
2022-11-13T07:53:22.952Z,102738.78
2022-11-13T07:55:49.354Z,102740.81
2022-11-13T07:58:15.872Z,102736.94
2022-11-13T08:00:42.312Z,102740.69
2022-11-13T08:03:09.615Z,102752.25
2022-11-13T08:05:36.196Z,102739.25
2022-11-13T08:08:02.988Z,102748.22
2022-11-13T08:10:29.523Z,102746.66
2022-11-13T08:13:03.591Z,102739.19
2022-11-13T08:15:31.016Z,102740.31
2022-11-13T08:17:58.377Z,102738.66
2022-11-13T08:20:25.417Z,102742.34
2022-11-13T08:22:52.570Z,102751.09
2022-11-13T08:25:19.226Z,102747.81
2022-11-13T08:27:45.581Z,102737.56
2022-11-13T08:30:12.506Z,102736.72
2022-11-13T08:32:38.846Z,102733.44
2022-11-13T08:35:05.491Z,102738.59
2022-11-13T08:37:32.725Z,102733.69
2022-11-13T08:39:59.030Z,102738.31
2022-11-13T08:42:25.623Z,102743.03
2022-11-13T08:44:52.065Z,102747.84
2022-11-13T08:47:18.378Z,102735.22
2022-11-13T08:49:44.791Z,102737.59
2022-11-13T08:52:11.116Z,102733.75
2022-11-13T08:54:37.822Z,102736.13
2022-11-13T08:57:06.093Z,102747.09
2022-11-13T08:59:32.583Z,102754.69
2022-11-13T09:01:59.694Z,102755.88
2022-11-13T09:04:26.574Z,102750.91
2022-11-13T09:06:53.322Z,102749.38
2022-11-13T09:09:20.338Z,102746.06
2022-11-13T09:11:46.691Z,102747.66
2022-11-13T09:14:13.090Z,102756.66
2022-11-13T09:16:39.410Z,102741.97
2022-11-13T09:19:06.182Z,102748.38
2022-11-13T09:21:32.520Z,102738.66
2022-11-13T09:23:58.799Z,102742.56
2022-11-13T09:26:25.154Z,102745.41
2022-11-13T09:28:51.483Z,102735.91
2022-11-13T09:31:17.786Z,102733.09
2022-11-13T09:33:44.137Z,102734.06
2022-11-13T09:36:16.278Z,102726.50
2022-11-13T09:38:42.979Z,102725.56
2022-11-13T09:41:20.702Z,102730.13
2022-11-13T09:43:53.084Z,102728.41
2022-11-13T09:46:22.987Z,102732.97
2022-11-13T09:49:02.600Z,102735.59
2022-11-13T09:51:30.323Z,102728.56
2022-11-13T09:53:57.777Z,102724.00
2022-11-13T09:56:28.479Z,102727.50
2022-11-13T09:59:00.576Z,102731.81
2022-11-13T10:01:45.759Z,102738.81
2022-11-13T10:04:15.063Z,102737.09
2022-11-13T10:06:50.583Z,102735.41
2022-11-13T10:09:16.921Z,102729.88
2022-11-13T10:11:45.718Z,102727.19
2022-11-13T10:14:15.232Z,102729.81
2022-11-13T10:16:48.167Z,102735.16
2022-11-13T10:19:17.512Z,102731.69
2022-11-13T10:21:46.657Z,102726.03
2022-11-13T10:24:18.571Z,102719.75
2022-11-13T10:26:44.874Z,102721.06
2022-11-13T10:29:13.088Z,102723.50
2022-11-13T10:31:43.574Z,102719.22
2022-11-13T10:34:11.231Z,102716.50
2022-11-13T10:36:40.507Z,102720.88
2022-11-13T10:39:07.695Z,102721.63
2022-11-13T10:41:44.973Z,102718.06
2022-11-13T10:44:23.070Z,102713.59
2022-11-13T10:46:49.414Z,102719.56
2022-11-13T10:49:19.791Z,102717.75
2022-11-13T10:51:53.934Z,102722.19
2022-11-13T10:54:22.771Z,102709.03
2022-11-13T10:57:02.758Z,102716.88
2022-11-13T10:59:42.802Z,102714.50
2022-11-13T11:02:16.133Z,102708.47
2022-11-13T11:04:43.181Z,102704.25
2022-11-13T11:07:20.671Z,102707.94
2022-11-13T11:09:48.351Z,102703.31
2022-11-13T11:12:24.304Z,102703.50
2022-11-13T11:14:56.501Z,102691.53
2022-11-13T11:17:30.142Z,102700.66
2022-11-13T11:20:15.101Z,102695.50
2022-11-13T11:22:41.911Z,102702.81
2022-11-13T11:25:15.719Z,102693.13
2022-11-13T11:27:49.089Z,102684.63
2022-11-13T11:30:20.460Z,102682.09
2022-11-13T11:32:50.062Z,102684.06
2022-11-13T11:35:16.439Z,102679.03
2022-11-13T11:37:55.484Z,102680.09
2022-11-13T11:40:24.560Z,102672.22
2022-11-13T11:43:09.808Z,102682.88
2022-11-13T11:45:37.824Z,102673.13
2022-11-13T11:48:06.205Z,102668.66
2022-11-13T11:50:58.571Z,102667.97
2022-11-13T11:53:34.286Z,102659.25
2022-11-13T11:56:00.543Z,102658.53
2022-11-13T11:58:27.753Z,102654.09
2022-11-13T12:01:00.983Z,102651.53
2022-11-13T12:03:27.272Z,102655.22
2022-11-13T12:05:53.543Z,102653.63
2022-11-13T12:08:31.389Z,102646.47
2022-11-13T12:10:58.040Z,102642.19
2022-11-13T12:13:28.232Z,102628.97
2022-11-13T12:16:09.682Z,102632.75
2022-11-13T12:18:40.383Z,102630.97
2022-11-13T12:21:22.300Z,102626.41
2022-11-13T12:23:58.925Z,102621.06
2022-11-13T12:26:41.526Z,102614.94
2022-11-13T12:29:16.849Z,102612.25
2022-11-13T12:31:46.646Z,102612.19
2022-11-13T12:34:12.911Z,102602.50
2022-11-13T12:36:39.243Z,102598.97
2022-11-13T12:39:25.479Z,102600.66
2022-11-13T12:41:55.245Z,102587.50
2022-11-13T12:44:31.857Z,102584.06
2022-11-13T12:47:01.177Z,102579.88
2022-11-13T12:49:27.589Z,102575.47
2022-11-13T12:52:04.463Z,102578.97
2022-11-13T12:54:32.597Z,102562.41
2022-11-13T12:57:30.689Z,102558.03
2022-11-13T13:00:00.436Z,102558.31
2022-11-13T13:02:40.530Z,102548.94
2022-11-13T13:05:07.505Z,102549.22
2022-11-13T13:07:52.199Z,102547.72
2022-11-13T13:10:51.097Z,102546.94
2022-11-13T13:13:24.630Z,102549.50
2022-11-13T13:15:55.710Z,102542.56
2022-11-13T13:18:29.823Z,102540.75
2022-11-13T13:21:09.856Z,102542.63
2022-11-13T13:23:37.896Z,102543.97
2022-11-13T13:26:04.265Z,102541.38
2022-11-13T13:28:31.573Z,102532.88
2022-11-13T13:31:21.826Z,102534.03
2022-11-13T13:33:57.006Z,102539.38
2022-11-13T13:36:37.770Z,102530.75
2022-11-13T13:39:06.861Z,102536.38
2022-11-13T13:41:40.007Z,102526.63
2022-11-13T13:44:06.324Z,102530.19
2022-11-13T13:46:34.161Z,102530.97
2022-11-13T13:49:05.948Z,102524.69
2022-11-13T13:51:49.422Z,102528.34
2022-11-13T13:54:36.066Z,102522.41
2022-11-13T13:57:02.429Z,102511.19
2022-11-13T13:59:31.701Z,102514.00
2022-11-13T14:02:02.146Z,102518.47
2022-11-13T14:04:29.462Z,102515.25
2022-11-13T14:06:57.006Z,102514.41
2022-11-13T14:09:25.215Z,102504.53
2022-11-13T14:12:07.799Z,102509.88
2022-11-13T14:14:39.063Z,102514.16
2022-11-13T14:17:05.486Z,102512.28
2022-11-13T14:19:32.017Z,102506.84
2022-11-13T14:22:02.872Z,102502.50
2022-11-13T14:24:33.981Z,102505.13
2022-11-13T14:27:02.390Z,102501.63
2022-11-13T14:29:47.127Z,102501.66
2022-11-13T14:32:16.064Z,102493.72
2022-11-13T14:34:43.512Z,102498.13
2022-11-13T14:37:31.172Z,102493.75
2022-11-13T14:40:00.325Z,102492.75
2022-11-13T14:42:29.791Z,102488.13
2022-11-13T14:45:05.752Z,102494.19
2022-11-13T14:47:37.422Z,102482.63
2022-11-13T14:50:09.017Z,102495.69
2022-11-13T14:52:35.315Z,102493.06
2022-11-13T14:55:18.798Z,102486.13
2022-11-13T14:57:48.913Z,102487.84
2022-11-13T15:00:18.786Z,102488.88
2022-11-13T15:02:45.062Z,102487.84
2022-11-13T15:05:11.336Z,102490.44
2022-11-13T15:07:41.007Z,102493.03
2022-11-13T15:10:11.863Z,102494.78
2022-11-13T15:12:38.142Z,102501.75
2022-11-13T15:15:04.998Z,102487.84
2022-11-13T15:17:32.674Z,102487.03
2022-11-13T15:19:59.613Z,102490.44
2022-11-13T15:22:27.929Z,102489.56
2022-11-13T15:24:54.861Z,102479.88
2022-11-13T15:27:21.806Z,102479.88
2022-11-13T15:29:48.588Z,102478.06
2022-11-13T15:32:16.004Z,102480.69
2022-11-13T15:34:43.105Z,102473.75
2022-11-13T15:37:10.727Z,102471.13
2022-11-13T15:39:37.116Z,102468.47
2022-11-13T15:42:05.191Z,102465.84
2022-11-13T15:44:31.473Z,102463.22
2022-11-13T15:46:57.783Z,102465.84
2022-11-13T15:49:24.136Z,102466.72
2022-11-13T15:51:50.604Z,102463.25
2022-11-13T15:54:23.770Z,102470.31
2022-11-13T15:56:50.405Z,102467.69
2022-11-13T15:59:16.999Z,102470.25
2022-11-13T16:01:43.681Z,102466.69
2022-11-13T16:04:12.909Z,102468.47
2022-11-13T16:06:40.296Z,102453.53
2022-11-13T16:09:09.737Z,102465.84
2022-11-13T16:11:36.542Z,102453.53
2022-11-13T16:14:02.987Z,102464.13
2022-11-13T16:16:34.518Z,102457.94
2022-11-13T16:19:01.603Z,102458.88
2022-11-13T16:21:28.166Z,102456.22
2022-11-13T16:23:54.495Z,102455.34
2022-11-13T16:26:25.977Z,102451.88
2022-11-13T16:29:12.614Z,102443.91
2022-11-13T16:31:39.483Z,102434.28
2022-11-13T16:34:05.848Z,102437.78
2022-11-13T16:36:32.419Z,102433.38
2022-11-13T16:38:58.842Z,102429.00
2022-11-13T16:41:25.570Z,102438.69
2022-11-13T16:43:51.957Z,102430.84
2022-11-13T16:46:18.930Z,102429.09
2022-11-13T16:48:45.494Z,102434.41
2022-11-13T16:51:11.875Z,102430.78
2022-11-13T16:53:38.221Z,102428.25
2022-11-13T16:56:11.277Z,102435.31
2022-11-13T16:58:37.602Z,102425.56
2022-11-13T17:01:05.110Z,102426.44
2022-11-13T17:03:31.885Z,102423.88
2022-11-13T17:05:58.349Z,102419.44
2022-11-13T17:08:24.618Z,102412.50
2022-11-13T17:10:57.563Z,102418.66
2022-11-13T17:13:23.833Z,102417.72
2022-11-13T17:15:50.132Z,102410.75
2022-11-13T17:18:16.425Z,102413.44
2022-11-13T17:20:42.815Z,102410.84
2022-11-13T17:23:15.996Z,102414.41
2022-11-13T17:25:42.308Z,102410.84
2022-11-13T17:28:08.585Z,102409.94
2022-11-13T17:30:34.877Z,102409.09
2022-11-13T17:33:01.158Z,102409.94
2022-11-13T17:35:27.438Z,102413.53
2022-11-13T17:37:53.770Z,102402.19
2022-11-13T17:40:20.206Z,102399.56
2022-11-13T17:42:48.410Z,102395.22
2022-11-13T17:45:14.845Z,102389.94
2022-11-13T17:47:41.123Z,102391.78
2022-11-13T17:50:08.009Z,102381.22
2022-11-13T17:52:34.524Z,102383.88
2022-11-13T17:55:00.873Z,102375.16
2022-11-13T17:57:27.338Z,102378.72
2022-11-13T17:59:56.966Z,102382.25
2022-11-13T18:02:23.901Z,102380.50
2022-11-13T18:04:50.258Z,102381.47
2022-11-13T18:07:16.734Z,102372.63
2022-11-13T18:09:43.048Z,102370.06
2022-11-13T18:12:10.790Z,102371.84
2022-11-13T18:14:37.365Z,102374.53
2022-11-13T18:17:03.744Z,102377.25
2022-11-13T18:19:30.511Z,102368.50
2022-11-13T18:21:56.838Z,102359.72
2022-11-13T18:24:23.285Z,102358.00
2022-11-13T18:26:49.641Z,102358.00
2022-11-13T18:29:16.078Z,102355.41
2022-11-13T18:31:42.535Z,102353.69
2022-11-13T18:34:12.555Z,102349.25
2022-11-13T18:36:39.043Z,102350.19
2022-11-13T18:39:05.687Z,102353.75
2022-11-13T18:41:34.303Z,102351.13
2022-11-13T18:44:00.664Z,102351.22
2022-11-13T18:46:26.999Z,102346.81
2022-11-13T18:48:54.974Z,102342.41
2022-11-13T18:51:22.726Z,102343.38
2022-11-13T18:53:49.843Z,102346.91
2022-11-13T18:56:17.442Z,102335.56
2022-11-13T18:58:44.609Z,102341.75
2022-11-13T19:01:21.796Z,102342.72
2022-11-13T19:04:08.369Z,102331.34
2022-11-13T19:06:36.671Z,102322.59
2022-11-13T19:09:05.113Z,102324.38
2022-11-13T19:11:31.965Z,102328.81
2022-11-13T19:13:58.421Z,102324.50
2022-11-13T19:16:25.993Z,102325.38
2022-11-13T19:18:52.335Z,102328.03
2022-11-13T19:21:19.470Z,102328.00
2022-11-13T19:23:45.763Z,102330.66
2022-11-13T19:26:12.192Z,102328.94
2022-11-13T19:28:38.966Z,102329.88
2022-11-13T19:31:09.179Z,102330.78
2022-11-13T19:33:35.603Z,102316.75
2022-11-13T19:36:06.197Z,102317.66
2022-11-13T19:38:32.504Z,102324.75
2022-11-13T19:40:58.797Z,102309.78
2022-11-13T19:43:25.121Z,102315.91
2022-11-13T19:45:51.415Z,102309.78
2022-11-13T19:48:19.030Z,102316.88
2022-11-13T19:50:47.318Z,102308.06
2022-11-13T19:53:14.357Z,102309.03
2022-11-13T19:55:40.838Z,102312.56
2022-11-13T19:58:07.184Z,102304.72
2022-11-13T20:00:33.490Z,102302.06
2022-11-13T20:03:02.626Z,102301.22
2022-11-13T20:05:32.778Z,102304.75
2022-11-13T20:07:59.165Z,102297.72
2022-11-13T20:10:25.565Z,102291.53
2022-11-13T20:12:51.846Z,102293.28
2022-11-13T20:15:18.143Z,102291.47
2022-11-13T20:17:44.551Z,102289.75
2022-11-13T20:20:11.050Z,102292.38
2022-11-13T20:22:37.598Z,102288.00
2022-11-13T20:25:04.080Z,102285.38
2022-11-13T20:27:30.374Z,102288.00
2022-11-13T20:29:57.741Z,102268.69
2022-11-13T20:32:24.250Z,102276.56
2022-11-13T20:34:50.667Z,102282.75
2022-11-13T20:37:16.974Z,102277.47
2022-11-13T20:39:43.580Z,102283.59
2022-11-13T20:42:09.930Z,102275.63
2022-11-13T20:44:36.204Z,102287.97
2022-11-13T20:47:02.933Z,102282.63
2022-11-13T20:49:29.336Z,102280.91
2022-11-13T20:51:57.272Z,102285.28
2022-11-13T20:54:23.975Z,102283.44
2022-11-13T20:56:50.797Z,102278.19
2022-11-13T20:59:17.206Z,102281.56
2022-11-13T21:01:43.526Z,102279.81
2022-11-13T21:04:10.413Z,102279.63
2022-11-13T21:06:36.741Z,102276.94
2022-11-13T21:09:03.566Z,102279.53
2022-11-13T21:11:32.860Z,102277.69
2022-11-13T21:14:00.616Z,102267.09
2022-11-13T21:16:28.150Z,102269.75
2022-11-13T21:18:55.210Z,102270.59
2022-11-13T21:21:21.974Z,102263.56
2022-11-13T21:24:08.933Z,102262.66
2022-11-13T21:26:35.611Z,102268.81
2022-11-13T21:29:02.001Z,102268.72
2022-11-13T21:31:28.322Z,102262.53
2022-11-13T21:33:54.774Z,102253.66
2022-11-13T21:36:22.465Z,102246.66
2022-11-13T21:38:49.548Z,102248.44
2022-11-13T21:41:21.924Z,102253.75
2022-11-13T21:43:51.308Z,102244.06
2022-11-13T21:46:18.058Z,102255.44
2022-11-13T21:48:44.915Z,102254.63
2022-11-13T21:51:11.531Z,102250.22
2022-11-13T21:53:38.238Z,102246.63
2022-11-13T21:56:05.022Z,102245.81
2022-11-13T21:58:32.250Z,102240.53
2022-11-13T22:00:59.323Z,102238.75
2022-11-13T22:03:27.716Z,102247.53
2022-11-13T22:06:13.934Z,102243.22
2022-11-13T22:08:40.399Z,102230.94
2022-11-13T22:11:06.787Z,102235.31
2022-11-13T22:13:33.073Z,102245.03
2022-11-13T22:15:59.633Z,102224.03
2022-11-13T22:18:26.091Z,102229.28
2022-11-13T22:20:52.538Z,102231.84
2022-11-13T22:23:18.839Z,102224.81
2022-11-13T22:25:45.264Z,102223.84
2022-11-13T22:28:11.558Z,102213.31
2022-11-13T22:30:37.998Z,102218.56
2022-11-13T22:33:04.655Z,102213.31
2022-11-13T22:35:30.936Z,102212.44
2022-11-13T22:37:57.338Z,102216.00
2022-11-13T22:40:23.653Z,102208.81
2022-11-13T22:42:49.965Z,102200.88
2022-11-13T22:45:23.718Z,102200.00
2022-11-13T22:47:50.542Z,102200.78
2022-11-13T22:50:16.874Z,102193.75
2022-11-13T22:52:43.140Z,102184.09
2022-11-13T22:55:09.430Z,102184.97
2022-11-13T22:57:35.714Z,102191.06
2022-11-13T23:00:02.466Z,102186.66
2022-11-13T23:02:28.739Z,102189.19
2022-11-13T23:04:55.037Z,102189.19
2022-11-13T23:07:21.388Z,102191.81
2022-11-13T23:09:47.699Z,102174.22
2022-11-13T23:12:13.990Z,102169.88
2022-11-13T23:14:40.317Z,102176.00
2022-11-13T23:17:06.605Z,102163.59
2022-11-13T23:19:32.887Z,102176.78
2022-11-13T23:21:59.180Z,102176.78
2022-11-13T23:24:25.527Z,102167.09
2022-11-13T23:26:51.796Z,102165.31
2022-11-13T23:29:18.110Z,102155.66
2022-11-13T23:31:44.401Z,102159.06
2022-11-13T23:34:10.719Z,102156.44
2022-11-13T23:36:37.026Z,102158.13
2022-11-13T23:39:03.389Z,102162.47
2022-11-13T23:41:29.668Z,102157.19
2022-11-13T23:44:11.512Z,102151.84
2022-11-13T23:46:37.882Z,102149.06
2022-11-13T23:49:04.300Z,102147.28
2022-11-13T23:51:30.591Z,102134.91
2022-11-13T23:53:56.867Z,102130.41
2022-11-13T23:56:23.158Z,102131.16
2022-11-13T23:58:51.766Z,102121.44
